sensor_id;sensor_type;location;lat;lon;timestamp;P1;durP1;ratioP1;P2;durP2;ratioP2
12721;SDS011;6425;50.316;8.114;2024-01-15T00:00:00;22.2;;;8.2;;
12721;SDS011;6425;50.316;8.114;2024-01-15T00:03:00;19.1;;;7;;
12721;SDS011;6425;50.316;8.114;2024-01-15T00:06:00;25.5;;;10;;
12721;SDS011;6425;50.316;8.114;2024-01-15T00:09:00;25.5;;;10;;
12721;SDS011;6425;50.316;8.114;2024-01-15T00:12:00;25.2;;;9.9;;
12721;SDS011;6425;50.316;8.114;2024-01-15T00:15:00;25.2;;;9.9;;
12721;SDS011;6425;50.316;8.114;2024-01-15T00:18:00;19.1;;;9.7;;
12721;SDS011;6425;50.316;8.114;2024-01-15T00:21:01;21.6;;;9.9;;
12721;SDS011;6425;50.316;8.114;2024-01-15T00:24:00;21.6;;;9.9;;
12721;SDS011;6425;50.316;8.114;2024-01-15T00:27:00;21.1;;;9.7;;
12721;SDS011;6425;50.316;8.114;2024-01-15T00:30:00;21.1;;;9.7;;
12721;SDS011;6425;50.316;8.114;2024-01-15T00:33:00;25.1;;;14.7;;
12721;SDS011;6425;50.316;8.114;2024-01-15T00:36:00;20.9;;;11.5;;
12721;SDS011;6425;50.316;8.114;2024-01-15T00:39:00;20.9;;;11.5;;
12721;SDS011;6425;50.316;8.114;2024-01-15T00:42:00;21.1;;;9.9;;
12721;SDS011;6425;50.316;8.114;2024-01-15T00:45:00;21.1;;;9.9;;
12721;SDS011;6425;50.316;8.114;2024-01-15T00:48:00;19.7;;;8.5;;
12721;SDS011;6425;50.316;8.114;2024-01-15T00:51:00;21.8;;;9.3;;
12721;SDS011;6425;50.316;8.114;2024-01-15T00:54:00;21.8;;;9.3;;
12721;SDS011;6425;50.316;8.114;2024-01-15T00:57:00;23.2;;;11.5;;
12721;SDS011;6425;50.316;8.114;2024-01-15T01:00:00;23.2;;;11.5;;
12721;SDS011;6425;50.316;8.114;2024-01-15T01:03:00;18.6;;;9.7;;
12721;SDS011;6425;50.316;8.114;2024-01-15T01:06:00;23.6;;;10.1;;
12721;SDS011;6425;50.316;8.114;2024-01-15T01:09:02;23.6;;;10.1;;
12721;SDS011;6425;50.316;8.114;2024-01-15T01:12:00;24.8;;;15.6;;
12721;SDS011;6425;50.316;8.114;2024-01-15T01:15:00;24.6;;;14.5;;
12721;SDS011;6425;50.316;8.114;2024-01-15T01:18:00;24.3;;;11.4;;
12721;SDS011;6425;50.316;8.114;2024-01-15T01:21:00;27;;;10.3;;
12721;SDS011;6425;50.316;8.114;2024-01-15T01:24:00;27;;;10.3;;
12721;SDS011;6425;50.316;8.114;2024-01-15T01:27:00;26.3;;;11.4;;
12721;SDS011;6425;50.316;8.114;2024-01-15T01:30:00;26.4;;;11.7;;
12721;SDS011;6425;50.316;8.114;2024-01-15T01:33:00;26.4;;;11.7;;
12721;SDS011;6425;50.316;8.114;2024-01-15T01:36:00;21.2;;;10.9;;
12721;SDS011;6425;50.316;8.114;2024-01-15T01:39:00;21.2;;;10.9;;
12721;SDS011;6425;50.316;8.114;2024-01-15T01:42:00;21.2;;;9.5;;
12721;SDS011;6425;50.316;8.114;2024-01-15T01:45:00;20.9;;;10.4;;
12721;SDS011;6425;50.316;8.114;2024-01-15T01:48:00;20.9;;;10.4;;
12721;SDS011;6425;50.316;8.114;2024-01-15T01:51:00;23.9;;;10.5;;
12721;SDS011;6425;50.316;8.114;2024-01-15T01:54:00;23.9;;;10.5;;
12721;SDS011;6425;50.316;8.114;2024-01-15T01:57:00;26.4;;;11.8;;
12721;SDS011;6425;50.316;8.114;2024-01-15T02:00:00;23.6;;;10.6;;
12721;SDS011;6425;50.316;8.114;2024-01-15T02:03:00;23.6;;;10.6;;
12721;SDS011;6425;50.316;8.114;2024-01-15T02:06:00;24.2;;;11.3;;
12721;SDS011;6425;50.316;8.114;2024-01-15T02:09:00;24.2;;;11.3;;
12721;SDS011;6425;50.316;8.114;2024-01-15T02:12:00;25.8;;;9.4;;
12721;SDS011;6425;50.316;8.114;2024-01-15T02:15:00;28.5;;;11.7;;
12721;SDS011;6425;50.316;8.114;2024-01-15T02:18:00;28.5;;;11.7;;
12721;SDS011;6425;50.316;8.114;2024-01-15T02:21:00;26.8;;;9;;
12721;SDS011;6425;50.316;8.114;2024-01-15T02:24:00;26.8;;;9;;
12721;SDS011;6425;50.316;8.114;2024-01-15T02:27:00;25.5;;;11.8;;
12721;SDS011;6425;50.316;8.114;2024-01-15T02:30:00;21.7;;;9.4;;
12721;SDS011;6425;50.316;8.114;2024-01-15T02:33:00;21.7;;;9.4;;
12721;SDS011;6425;50.316;8.114;2024-01-15T02:36:00;21.4;;;9.7;;
12721;SDS011;6425;50.316;8.114;2024-01-15T02:39:00;21.4;;;9.7;;
12721;SDS011;6425;50.316;8.114;2024-01-15T02:42:00;26;;;14.8;;
12721;SDS011;6425;50.316;8.114;2024-01-15T02:45:00;18.9;;;9.7;;
12721;SDS011;6425;50.316;8.114;2024-01-15T02:48:00;18.9;;;9.7;;
12721;SDS011;6425;50.316;8.114;2024-01-15T02:51:00;17.4;;;8.9;;
12721;SDS011;6425;50.316;8.114;2024-01-15T02:54:00;17.4;;;8.9;;
12721;SDS011;6425;50.316;8.114;2024-01-15T02:57:00;22.9;;;11.1;;
12721;SDS011;6425;50.316;8.114;2024-01-15T03:00:00;29.7;;;9.6;;
12721;SDS011;6425;50.316;8.114;2024-01-15T03:03:00;29.7;;;9.6;;
12721;SDS011;6425;50.316;8.114;2024-01-15T03:06:01;24;;;12.6;;
12721;SDS011;6425;50.316;8.114;2024-01-15T03:09:01;24;;;12.6;;
12721;SDS011;6425;50.316;8.114;2024-01-15T03:12:00;24.5;;;10.5;;
12721;SDS011;6425;50.316;8.114;2024-01-15T03:15:00;38.9;;;16.9;;
12721;SDS011;6425;50.316;8.114;2024-01-15T03:18:00;38.9;;;16.9;;
12721;SDS011;6425;50.316;8.114;2024-01-15T03:21:01;27.2;;;11.4;;
12721;SDS011;6425;50.316;8.114;2024-01-15T03:24:00;27.2;;;11.4;;
12721;SDS011;6425;50.316;8.114;2024-01-15T03:27:00;31.6;;;12.9;;
12721;SDS011;6425;50.316;8.114;2024-01-15T03:30:00;27.2;;;10.3;;
12721;SDS011;6425;50.316;8.114;2024-01-15T03:33:00;27.2;;;10.3;;
12721;SDS011;6425;50.316;8.114;2024-01-15T03:36:00;20.3;;;9.6;;
12721;SDS011;6425;50.316;8.114;2024-01-15T03:39:00;24.6;;;11.5;;
12721;SDS011;6425;50.316;8.114;2024-01-15T03:42:00;24.6;;;11.5;;
12721;SDS011;6425;50.316;8.114;2024-01-15T03:45:00;25.5;;;9.9;;
12721;SDS011;6425;50.316;8.114;2024-01-15T03:48:00;25.5;;;9.9;;
12721;SDS011;6425;50.316;8.114;2024-01-15T03:51:00;22.9;;;12;;
12721;SDS011;6425;50.316;8.114;2024-01-15T03:54:00;28.1;;;12.1;;
12721;SDS011;6425;50.316;8.114;2024-01-15T03:57:00;28.1;;;12.1;;
12721;SDS011;6425;50.316;8.114;2024-01-15T04:00:00;28.8;;;11.7;;
12721;SDS011;6425;50.316;8.114;2024-01-15T04:03:00;28.8;;;11.7;;
12721;SDS011;6425;50.316;8.114;2024-01-15T04:06:00;21.8;;;9.8;;
12721;SDS011;6425;50.316;8.114;2024-01-15T04:09:00;22.1;;;9.4;;
12721;SDS011;6425;50.316;8.114;2024-01-15T04:12:00;22.1;;;9.4;;
12721;SDS011;6425;50.316;8.114;2024-01-15T04:15:00;29.4;;;14.6;;
12721;SDS011;6425;50.316;8.114;2024-01-15T04:18:00;29.4;;;14.6;;
12721;SDS011;6425;50.316;8.114;2024-01-15T04:21:00;27;;;12.2;;
12721;SDS011;6425;50.316;8.114;2024-01-15T04:24:00;27.2;;;12.8;;
12721;SDS011;6425;50.316;8.114;2024-01-15T04:27:00;27.2;;;12.8;;
12721;SDS011;6425;50.316;8.114;2024-01-15T04:30:00;26.6;;;12.1;;
12721;SDS011;6425;50.316;8.114;2024-01-15T04:33:01;26.6;;;12.1;;
12721;SDS011;6425;50.316;8.114;2024-01-15T04:36:01;30.2;;;11.8;;
12721;SDS011;6425;50.316;8.114;2024-01-15T04:39:00;25.1;;;11.4;;
12721;SDS011;6425;50.316;8.114;2024-01-15T04:42:00;25.1;;;11.4;;
12721;SDS011;6425;50.316;8.114;2024-01-15T04:45:00;19.9;;;9.9;;
12721;SDS011;6425;50.316;8.114;2024-01-15T04:48:00;19.9;;;9.9;;
12721;SDS011;6425;50.316;8.114;2024-01-15T04:51:00;22.8;;;9.7;;
12721;SDS011;6425;50.316;8.114;2024-01-15T04:54:00;26.7;;;10.7;;
12721;SDS011;6425;50.316;8.114;2024-01-15T04:57:00;26.7;;;10.7;;
12721;SDS011;6425;50.316;8.114;2024-01-15T05:00:00;28.4;;;10.5;;
12721;SDS011;6425;50.316;8.114;2024-01-15T05:03:00;28.4;;;10.5;;
12721;SDS011;6425;50.316;8.114;2024-01-15T05:06:00;32.6;;;12;;
12721;SDS011;6425;50.316;8.114;2024-01-15T05:09:01;29.2;;;10.7;;
12721;SDS011;6425;50.316;8.114;2024-01-15T05:12:00;29.2;;;10.7;;
12721;SDS011;6425;50.316;8.114;2024-01-15T05:15:00;26;;;11.3;;
12721;SDS011;6425;50.316;8.114;2024-01-15T05:18:00;26;;;11.3;;
12721;SDS011;6425;50.316;8.114;2024-01-15T05:21:00;22.8;;;9.4;;
12721;SDS011;6425;50.316;8.114;2024-01-15T05:24:00;27.6;;;12.5;;
12721;SDS011;6425;50.316;8.114;2024-01-15T05:27:00;27.6;;;12.5;;
12721;SDS011;6425;50.316;8.114;2024-01-15T05:30:00;23.6;;;10.8;;
12721;SDS011;6425;50.316;8.114;2024-01-15T05:33:00;23.6;;;10.8;;
12721;SDS011;6425;50.316;8.114;2024-01-15T05:36:00;27.6;;;11.4;;
12721;SDS011;6425;50.316;8.114;2024-01-15T05:39:00;34.8;;;12.2;;
12721;SDS011;6425;50.316;8.114;2024-01-15T05:42:00;34.8;;;12.2;;
12721;SDS011;6425;50.316;8.114;2024-01-15T05:45:01;30.5;;;12.5;;
12721;SDS011;6425;50.316;8.114;2024-01-15T05:48:00;30.9;;;12.2;;
12721;SDS011;6425;50.316;8.114;2024-01-15T05:51:00;32.2;;;11.3;;
12721;SDS011;6425;50.316;8.114;2024-01-15T05:54:00;28.4;;;11.6;;
12721;SDS011;6425;50.316;8.114;2024-01-15T05:57:00;28.4;;;11.6;;
12721;SDS011;6425;50.316;8.114;2024-01-15T06:00:00;32.7;;;11.8;;
12721;SDS011;6425;50.316;8.114;2024-01-15T06:03:00;31.2;;;11.4;;
12721;SDS011;6425;50.316;8.114;2024-01-15T06:06:00;31.2;;;11.4;;
12721;SDS011;6425;50.316;8.114;2024-01-15T06:09:00;31.6;;;12.7;;
12721;SDS011;6425;50.316;8.114;2024-01-15T06:12:00;31.6;;;12.7;;
12721;SDS011;6425;50.316;8.114;2024-01-15T06:15:00;32.5;;;13.3;;
12721;SDS011;6425;50.316;8.114;2024-01-15T06:18:00;44.6;;;15.3;;
12721;SDS011;6425;50.316;8.114;2024-01-15T06:21:00;44.6;;;15.3;;
12721;SDS011;6425;50.316;8.114;2024-01-15T06:24:00;53.8;;;18.7;;
12721;SDS011;6425;50.316;8.114;2024-01-15T06:27:00;53.8;;;18.7;;
12721;SDS011;6425;50.316;8.114;2024-01-15T06:30:00;64.1;;;19.9;;
12721;SDS011;6425;50.316;8.114;2024-01-15T06:33:00;58.5;;;17.9;;
12721;SDS011;6425;50.316;8.114;2024-01-15T06:36:00;58.5;;;17.9;;
12721;SDS011;6425;50.316;8.114;2024-01-15T06:39:00;67.1;;;21.3;;
12721;SDS011;6425;50.316;8.114;2024-01-15T06:42:00;67.1;;;21.3;;
12721;SDS011;6425;50.316;8.114;2024-01-15T06:45:00;67.9;;;19.2;;
12721;SDS011;6425;50.316;8.114;2024-01-15T06:48:00;62.6;;;19.2;;
12721;SDS011;6425;50.316;8.114;2024-01-15T06:51:00;62.6;;;19.2;;
12721;SDS011;6425;50.316;8.114;2024-01-15T06:54:00;47.3;;;17.3;;
12721;SDS011;6425;50.316;8.114;2024-01-15T06:57:02;47.3;;;17.3;;
12721;SDS011;6425;50.316;8.114;2024-01-15T07:00:00;44.9;;;15.6;;
12721;SDS011;6425;50.316;8.114;2024-01-15T07:03:00;33.4;;;13.7;;
12721;SDS011;6425;50.316;8.114;2024-01-15T07:06:00;33.4;;;13.7;;
12721;SDS011;6425;50.316;8.114;2024-01-15T07:09:00;31.3;;;14.3;;
12721;SDS011;6425;50.316;8.114;2024-01-15T07:12:00;31.3;;;14.3;;
12721;SDS011;6425;50.316;8.114;2024-01-15T07:15:00;49.6;;;16.6;;
12721;SDS011;6425;50.316;8.114;2024-01-15T07:18:00;68.5;;;22.4;;
12721;SDS011;6425;50.316;8.114;2024-01-15T07:21:00;68.5;;;22.4;;
12721;SDS011;6425;50.316;8.114;2024-01-15T07:24:00;91.7;;;23.3;;
12721;SDS011;6425;50.316;8.114;2024-01-15T07:27:00;91.7;;;23.3;;
12721;SDS011;6425;50.316;8.114;2024-01-15T07:30:00;80.7;;;23;;
12721;SDS011;6425;50.316;8.114;2024-01-15T07:33:02;73.8;;;21.2;;
12721;SDS011;6425;50.316;8.114;2024-01-15T07:36:00;73.8;;;21.2;;
12721;SDS011;6425;50.316;8.114;2024-01-15T07:39:00;80.2;;;22.7;;
12721;SDS011;6425;50.316;8.114;2024-01-15T07:42:00;80.2;;;22.7;;
12721;SDS011;6425;50.316;8.114;2024-01-15T07:45:00;84.1;;;23.1;;
12721;SDS011;6425;50.316;8.114;2024-01-15T07:48:00;79.4;;;21.7;;
12721;SDS011;6425;50.316;8.114;2024-01-15T07:51:00;79.4;;;21.7;;
12721;SDS011;6425;50.316;8.114;2024-01-15T07:54:00;81.2;;;24;;
12721;SDS011;6425;50.316;8.114;2024-01-15T07:57:01;81.2;;;24;;
12721;SDS011;6425;50.316;8.114;2024-01-15T08:00:00;78.2;;;23.9;;
12721;SDS011;6425;50.316;8.114;2024-01-15T08:03:00;71.9;;;21.8;;
12721;SDS011;6425;50.316;8.114;2024-01-15T08:06:00;71.9;;;21.8;;
12721;SDS011;6425;50.316;8.114;2024-01-15T08:09:00;69;;;22.6;;
12721;SDS011;6425;50.316;8.114;2024-01-15T08:12:00;68.7;;;20.4;;
12721;SDS011;6425;50.316;8.114;2024-01-15T08:15:00;68.7;;;20.4;;
12721;SDS011;6425;50.316;8.114;2024-01-15T08:18:00;55.6;;;19.6;;
12721;SDS011;6425;50.316;8.114;2024-01-15T08:21:00;55.6;;;19.6;;
12721;SDS011;6425;50.316;8.114;2024-01-15T08:24:00;54.5;;;20.3;;
12721;SDS011;6425;50.316;8.114;2024-01-15T08:27:00;48;;;17.3;;
12721;SDS011;6425;50.316;8.114;2024-01-15T08:30:00;48;;;17.3;;
12721;SDS011;6425;50.316;8.114;2024-01-15T08:33:00;41.6;;;15.7;;
12721;SDS011;6425;50.316;8.114;2024-01-15T08:36:00;41.6;;;15.7;;
12721;SDS011;6425;50.316;8.114;2024-01-15T08:39:00;35.8;;;14;;
12721;SDS011;6425;50.316;8.114;2024-01-15T08:42:00;32.7;;;12.8;;
12721;SDS011;6425;50.316;8.114;2024-01-15T08:45:00;32.7;;;12.8;;
12721;SDS011;6425;50.316;8.114;2024-01-15T08:48:00;33.3;;;13.6;;
12721;SDS011;6425;50.316;8.114;2024-01-15T08:51:00;33.3;;;13.6;;
12721;SDS011;6425;50.316;8.114;2024-01-15T08:54:00;30.4;;;12;;
12721;SDS011;6425;50.316;8.114;2024-01-15T08:57:00;28.9;;;12.5;;
12721;SDS011;6425;50.316;8.114;2024-01-15T09:00:00;28.9;;;12.5;;
12721;SDS011;6425;50.316;8.114;2024-01-15T09:03:00;27.8;;;11.7;;
12721;SDS011;6425;50.316;8.114;2024-01-15T09:06:00;27.8;;;11.7;;
12721;SDS011;6425;50.316;8.114;2024-01-15T09:09:00;32.3;;;12.3;;
12721;SDS011;6425;50.316;8.114;2024-01-15T09:12:00;25.9;;;11.7;;
12721;SDS011;6425;50.316;8.114;2024-01-15T09:15:01;25.9;;;11.7;;
12721;SDS011;6425;50.316;8.114;2024-01-15T09:18:00;25.6;;;10.6;;
12721;SDS011;6425;50.316;8.114;2024-01-15T09:21:00;25.6;;;10.6;;
12721;SDS011;6425;50.316;8.114;2024-01-15T09:24:00;28.4;;;11.8;;
12721;SDS011;6425;50.316;8.114;2024-01-15T09:27:00;26.2;;;11.5;;
12721;SDS011;6425;50.316;8.114;2024-01-15T09:30:00;26.2;;;11.5;;
12721;SDS011;6425;50.316;8.114;2024-01-15T09:33:00;25.7;;;9.9;;
12721;SDS011;6425;50.316;8.114;2024-01-15T09:36:01;25.7;;;9.9;;
12721;SDS011;6425;50.316;8.114;2024-01-15T09:39:00;22.5;;;9.4;;
12721;SDS011;6425;50.316;8.114;2024-01-15T09:42:00;21.6;;;10.4;;
12721;SDS011;6425;50.316;8.114;2024-01-15T09:45:00;21.6;;;10.4;;
12721;SDS011;6425;50.316;8.114;2024-01-15T09:48:00;21.1;;;9.6;;
12721;SDS011;6425;50.316;8.114;2024-01-15T09:51:00;21.1;;;9.6;;
12721;SDS011;6425;50.316;8.114;2024-01-15T09:54:00;19;;;8.7;;
12721;SDS011;6425;50.316;8.114;2024-01-15T09:57:00;20.7;;;9.4;;
12721;SDS011;6425;50.316;8.114;2024-01-15T10:00:01;20.7;;;9.4;;
12721;SDS011;6425;50.316;8.114;2024-01-15T10:03:00;18.4;;;8.5;;
12721;SDS011;6425;50.316;8.114;2024-01-15T10:06:00;18.4;;;8.5;;
12721;SDS011;6425;50.316;8.114;2024-01-15T10:09:00;20.2;;;9.1;;
12721;SDS011;6425;50.316;8.114;2024-01-15T10:12:01;17.1;;;7.6;;
12721;SDS011;6425;50.316;8.114;2024-01-15T10:15:00;17.1;;;7.6;;
12721;SDS011;6425;50.316;8.114;2024-01-15T10:18:00;15.9;;;7.1;;
12721;SDS011;6425;50.316;8.114;2024-01-15T10:21:00;15.9;;;7.1;;
12721;SDS011;6425;50.316;8.114;2024-01-15T10:24:01;14.7;;;7;;
12721;SDS011;6425;50.316;8.114;2024-01-15T10:27:04;15.9;;;7.9;;
12721;SDS011;6425;50.316;8.114;2024-01-15T10:30:00;15.9;;;7.9;;
12721;SDS011;6425;50.316;8.114;2024-01-15T10:33:00;12.6;;;7.6;;
12721;SDS011;6425;50.316;8.114;2024-01-15T10:36:00;12.3;;;7.1;;
12721;SDS011;6425;50.316;8.114;2024-01-15T10:39:00;12.3;;;7.1;;
12721;SDS011;6425;50.316;8.114;2024-01-15T10:42:00;13.9;;;7;;
12721;SDS011;6425;50.316;8.114;2024-01-15T10:45:00;13.9;;;7;;
12721;SDS011;6425;50.316;8.114;2024-01-15T10:48:00;13.3;;;7.1;;
12721;SDS011;6425;50.316;8.114;2024-01-15T10:51:00;11.2;;;6.5;;
12721;SDS011;6425;50.316;8.114;2024-01-15T10:54:00;11.2;;;6.5;;
12721;SDS011;6425;50.316;8.114;2024-01-15T10:57:00;12.2;;;7;;
12721;SDS011;6425;50.316;8.114;2024-01-15T11:00:00;12.2;;;7;;
12721;SDS011;6425;50.316;8.114;2024-01-15T11:03:00;11.6;;;6.5;;
12721;SDS011;6425;50.316;8.114;2024-01-15T11:06:00;16.9;;;12.3;;
12721;SDS011;6425;50.316;8.114;2024-01-15T11:09:00;16.9;;;12.3;;
12721;SDS011;6425;50.316;8.114;2024-01-15T11:12:09;14.5;;;8.4;;
12721;SDS011;6425;50.316;8.114;2024-01-15T11:15:01;14.5;;;8.4;;
12721;SDS011;6425;50.316;8.114;2024-01-15T11:18:00;20.6;;;13.4;;
12721;SDS011;6425;50.316;8.114;2024-01-15T11:21:19;14.8;;;7.8;;
12721;SDS011;6425;50.316;8.114;2024-01-15T11:24:01;14.8;;;7.8;;
12721;SDS011;6425;50.316;8.114;2024-01-15T11:27:00;17.3;;;8.9;;
12721;SDS011;6425;50.316;8.114;2024-01-15T11:30:02;17.3;;;8.9;;
12721;SDS011;6425;50.316;8.114;2024-01-15T11:33:00;15.6;;;7.9;;
12721;SDS011;6425;50.316;8.114;2024-01-15T11:36:00;12.4;;;6.8;;
12721;SDS011;6425;50.316;8.114;2024-01-15T11:39:00;12.4;;;6.8;;
12721;SDS011;6425;50.316;8.114;2024-01-15T11:42:00;28;;;12.1;;
12721;SDS011;6425;50.316;8.114;2024-01-15T11:45:00;28;;;12.1;;
12721;SDS011;6425;50.316;8.114;2024-01-15T11:48:07;22.9;;;10.3;;
12721;SDS011;6425;50.316;8.114;2024-01-15T11:51:00;26.9;;;11.8;;
12721;SDS011;6425;50.316;8.114;2024-01-15T11:54:00;26.9;;;11.8;;
12721;SDS011;6425;50.316;8.114;2024-01-15T11:57:00;32.5;;;13.3;;
12721;SDS011;6425;50.316;8.114;2024-01-15T12:00:01;32.5;;;13.3;;
12721;SDS011;6425;50.316;8.114;2024-01-15T12:03:00;26.5;;;11.4;;
12721;SDS011;6425;50.316;8.114;2024-01-15T12:06:00;28.5;;;12.1;;
12721;SDS011;6425;50.316;8.114;2024-01-15T12:09:05;28.5;;;12.1;;
12721;SDS011;6425;50.316;8.114;2024-01-15T12:12:01;23.4;;;10.4;;
12721;SDS011;6425;50.316;8.114;2024-01-15T12:15:00;23.4;;;10.4;;
12721;SDS011;6425;50.316;8.114;2024-01-15T12:18:00;11.9;;;5.8;;
12721;SDS011;6425;50.316;8.114;2024-01-15T12:21:00;13.6;;;6.7;;
12721;SDS011;6425;50.316;8.114;2024-01-15T12:24:00;13.6;;;6.7;;
12721;SDS011;6425;50.316;8.114;2024-01-15T12:27:00;11.9;;;5.8;;
12721;SDS011;6425;50.316;8.114;2024-01-15T12:30:00;11.9;;;5.8;;
12721;SDS011;6425;50.316;8.114;2024-01-15T12:33:01;20.4;;;8.5;;
12721;SDS011;6425;50.316;8.114;2024-01-15T12:36:00;19.1;;;9.6;;
12721;SDS011;6425;50.316;8.114;2024-01-15T12:39:00;19.1;;;9.6;;
12721;SDS011;6425;50.316;8.114;2024-01-15T12:42:00;19.6;;;9.2;;
12721;SDS011;6425;50.316;8.114;2024-01-15T12:45:00;19.6;;;9.2;;
12721;SDS011;6425;50.316;8.114;2024-01-15T12:48:01;20.9;;;8.7;;
12721;SDS011;6425;50.316;8.114;2024-01-15T12:51:00;16;;;6.9;;
12721;SDS011;6425;50.316;8.114;2024-01-15T12:54:00;16;;;6.9;;
12721;SDS011;6425;50.316;8.114;2024-01-15T12:57:00;21;;;9.6;;
12721;SDS011;6425;50.316;8.114;2024-01-15T13:00:00;20.6;;;9.5;;
12721;SDS011;6425;50.316;8.114;2024-01-15T13:03:00;20.6;;;9.5;;
12721;SDS011;6425;50.316;8.114;2024-01-15T13:06:00;21.7;;;9.6;;
12721;SDS011;6425;50.316;8.114;2024-01-15T13:09:00;21.7;;;9.6;;
12721;SDS011;6425;50.316;8.114;2024-01-15T13:12:00;23.7;;;10.3;;
12721;SDS011;6425;50.316;8.114;2024-01-15T13:15:00;16.7;;;6.4;;
12721;SDS011;6425;50.316;8.114;2024-01-15T13:18:00;16.7;;;6.4;;
12721;SDS011;6425;50.316;8.114;2024-01-15T13:21:00;12.7;;;6.8;;
12721;SDS011;6425;50.316;8.114;2024-01-15T13:24:00;12.7;;;6.8;;
12721;SDS011;6425;50.316;8.114;2024-01-15T13:27:00;16.1;;;5.8;;
12721;SDS011;6425;50.316;8.114;2024-01-15T13:30:00;17.1;;;5.5;;
12721;SDS011;6425;50.316;8.114;2024-01-15T13:33:00;17.1;;;5.5;;
12721;SDS011;6425;50.316;8.114;2024-01-15T13:36:00;7.3;;;3.6;;
12721;SDS011;6425;50.316;8.114;2024-01-15T13:39:00;7.3;;;3.6;;
12721;SDS011;6425;50.316;8.114;2024-01-15T13:42:00;9.8;;;3.6;;
12721;SDS011;6425;50.316;8.114;2024-01-15T13:45:00;12.6;;;4.7;;
12721;SDS011;6425;50.316;8.114;2024-01-15T13:48:00;12.6;;;4.7;;
12721;SDS011;6425;50.316;8.114;2024-01-15T13:51:00;9.2;;;4.3;;
12721;SDS011;6425;50.316;8.114;2024-01-15T13:54:00;9.2;;;4.3;;
12721;SDS011;6425;50.316;8.114;2024-01-15T13:57:00;10.1;;;4;;
12721;SDS011;6425;50.316;8.114;2024-01-15T14:00:00;3.4;;;1.6;;
12721;SDS011;6425;50.316;8.114;2024-01-15T14:03:00;3.4;;;1.6;;
12721;SDS011;6425;50.316;8.114;2024-01-15T14:06:00;8.7;;;3.4;;
12721;SDS011;6425;50.316;8.114;2024-01-15T14:09:00;8.7;;;3.4;;
12721;SDS011;6425;50.316;8.114;2024-01-15T14:12:00;5.6;;;1.8;;
12721;SDS011;6425;50.316;8.114;2024-01-15T14:15:00;7.8;;;2.6;;
12721;SDS011;6425;50.316;8.114;2024-01-15T14:18:00;7.8;;;2.6;;
12721;SDS011;6425;50.316;8.114;2024-01-15T14:21:00;4.5;;;1.7;;
12721;SDS011;6425;50.316;8.114;2024-01-15T14:24:01;4.5;;;1.7;;
12721;SDS011;6425;50.316;8.114;2024-01-15T14:27:00;4.1;;;1.3;;
12721;SDS011;6425;50.316;8.114;2024-01-15T14:30:00;8.2;;;1.5;;
12721;SDS011;6425;50.316;8.114;2024-01-15T14:33:00;8.2;;;1.5;;
12721;SDS011;6425;50.316;8.114;2024-01-15T14:36:00;8.9;;;2.9;;
12721;SDS011;6425;50.316;8.114;2024-01-15T14:39:00;8.9;;;2.9;;
12721;SDS011;6425;50.316;8.114;2024-01-15T14:42:00;4.9;;;1.6;;
12721;SDS011;6425;50.316;8.114;2024-01-15T14:45:00;5.2;;;2.7;;
12721;SDS011;6425;50.316;8.114;2024-01-15T14:48:00;5.2;;;2.7;;
12721;SDS011;6425;50.316;8.114;2024-01-15T14:51:00;9.2;;;3.3;;
12721;SDS011;6425;50.316;8.114;2024-01-15T14:54:00;9.2;;;3.3;;
12721;SDS011;6425;50.316;8.114;2024-01-15T14:57:00;10.2;;;4.2;;
12721;SDS011;6425;50.316;8.114;2024-01-15T15:00:00;8.2;;;3.3;;
12721;SDS011;6425;50.316;8.114;2024-01-15T15:03:00;8.2;;;3.3;;
12721;SDS011;6425;50.316;8.114;2024-01-15T15:06:00;4;;;2;;
12721;SDS011;6425;50.316;8.114;2024-01-15T15:09:00;4;;;2;;
12721;SDS011;6425;50.316;8.114;2024-01-15T15:12:01;3.8;;;1;;
12721;SDS011;6425;50.316;8.114;2024-01-15T15:15:00;4.2;;;1.3;;
12721;SDS011;6425;50.316;8.114;2024-01-15T15:18:00;4.2;;;1.3;;
12721;SDS011;6425;50.316;8.114;2024-01-15T15:21:00;7.3;;;2.3;;
12721;SDS011;6425;50.316;8.114;2024-01-15T15:24:00;7.4;;;1.5;;
12721;SDS011;6425;50.316;8.114;2024-01-15T15:27:00;7.4;;;1.5;;
12721;SDS011;6425;50.316;8.114;2024-01-15T15:30:00;3;;;1.1;;
12721;SDS011;6425;50.316;8.114;2024-01-15T15:33:00;3;;;1.1;;
12721;SDS011;6425;50.316;8.114;2024-01-15T15:36:01;4.6;;;1.2;;
12721;SDS011;6425;50.316;8.114;2024-01-15T15:39:00;8.2;;;2;;
12721;SDS011;6425;50.316;8.114;2024-01-15T15:42:00;8.2;;;2;;
12721;SDS011;6425;50.316;8.114;2024-01-15T15:45:00;8.1;;;1.6;;
12721;SDS011;6425;50.316;8.114;2024-01-15T15:48:00;8.1;;;1.6;;
12721;SDS011;6425;50.316;8.114;2024-01-15T15:51:00;4;;;1.3;;
12721;SDS011;6425;50.316;8.114;2024-01-15T15:54:00;4.9;;;1.2;;
12721;SDS011;6425;50.316;8.114;2024-01-15T15:57:00;4.9;;;1.2;;
12721;SDS011;6425;50.316;8.114;2024-01-15T16:00:01;5.2;;;1;;
12721;SDS011;6425;50.316;8.114;2024-01-15T16:03:00;5.2;;;1;;
12721;SDS011;6425;50.316;8.114;2024-01-15T16:06:00;3.9;;;1.2;;
12721;SDS011;6425;50.316;8.114;2024-01-15T16:09:00;4.1;;;0.8;;
12721;SDS011;6425;50.316;8.114;2024-01-15T16:12:00;4.1;;;0.8;;
12721;SDS011;6425;50.316;8.114;2024-01-15T16:15:00;5;;;1;;
12721;SDS011;6425;50.316;8.114;2024-01-15T16:18:00;5;;;1;;
12721;SDS011;6425;50.316;8.114;2024-01-15T16:21:00;3.9;;;1.3;;
12721;SDS011;6425;50.316;8.114;2024-01-15T16:24:00;8.4;;;2.3;;
12721;SDS011;6425;50.316;8.114;2024-01-15T16:27:00;8.4;;;2.3;;
12721;SDS011;6425;50.316;8.114;2024-01-15T16:30:00;5.2;;;1.9;;
12721;SDS011;6425;50.316;8.114;2024-01-15T16:33:00;5.2;;;1.9;;
12721;SDS011;6425;50.316;8.114;2024-01-15T16:36:00;6.3;;;3;;
12721;SDS011;6425;50.316;8.114;2024-01-15T16:39:00;5.8;;;2.2;;
12721;SDS011;6425;50.316;8.114;2024-01-15T16:42:00;5.8;;;2.2;;
12721;SDS011;6425;50.316;8.114;2024-01-15T16:45:00;3.8;;;1.8;;
12721;SDS011;6425;50.316;8.114;2024-01-15T16:48:00;3.8;;;1.8;;
12721;SDS011;6425;50.316;8.114;2024-01-15T16:51:00;5.6;;;1.8;;
12721;SDS011;6425;50.316;8.114;2024-01-15T16:54:00;5.5;;;2.9;;
12721;SDS011;6425;50.316;8.114;2024-01-15T16:57:00;5.5;;;2.9;;
12721;SDS011;6425;50.316;8.114;2024-01-15T17:00:01;4.1;;;1.8;;
12721;SDS011;6425;50.316;8.114;2024-01-15T17:03:00;4.1;;;1.8;;
12721;SDS011;6425;50.316;8.114;2024-01-15T17:06:00;5.6;;;2;;
12721;SDS011;6425;50.316;8.114;2024-01-15T17:09:00;5.4;;;1.9;;
12721;SDS011;6425;50.316;8.114;2024-01-15T17:12:02;5.4;;;1.9;;
12721;SDS011;6425;50.316;8.114;2024-01-15T17:15:00;4.4;;;2.5;;
12721;SDS011;6425;50.316;8.114;2024-01-15T17:18:00;4.4;;;2.5;;
12721;SDS011;6425;50.316;8.114;2024-01-15T17:21:00;4.7;;;2;;
12721;SDS011;6425;50.316;8.114;2024-01-15T17:24:01;6;;;1.6;;
12721;SDS011;6425;50.316;8.114;2024-01-15T17:27:00;6;;;1.6;;
12721;SDS011;6425;50.316;8.114;2024-01-15T17:30:00;2.4;;;1.6;;
12721;SDS011;6425;50.316;8.114;2024-01-15T17:33:00;2.4;;;1.6;;
12721;SDS011;6425;50.316;8.114;2024-01-15T17:36:00;3.6;;;1.8;;
12721;SDS011;6425;50.316;8.114;2024-01-15T17:39:00;3.9;;;1.4;;
12721;SDS011;6425;50.316;8.114;2024-01-15T17:42:00;3.9;;;1.4;;
12721;SDS011;6425;50.316;8.114;2024-01-15T17:45:00;4;;;1.5;;
12721;SDS011;6425;50.316;8.114;2024-01-15T17:48:00;3;;;1.4;;
12721;SDS011;6425;50.316;8.114;2024-01-15T17:51:00;3;;;1.4;;
12721;SDS011;6425;50.316;8.114;2024-01-15T17:54:00;3;;;1.4;;
12721;SDS011;6425;50.316;8.114;2024-01-15T17:57:00;5.1;;;1.8;;
12721;SDS011;6425;50.316;8.114;2024-01-15T18:00:00;3.5;;;1.5;;
12721;SDS011;6425;50.316;8.114;2024-01-15T18:03:00;3.5;;;1.5;;
12721;SDS011;6425;50.316;8.114;2024-01-15T18:06:00;4.9;;;2.9;;
12721;SDS011;6425;50.316;8.114;2024-01-15T18:09:00;5.7;;;2.4;;
12721;SDS011;6425;50.316;8.114;2024-01-15T18:12:00;5.7;;;2.4;;
12721;SDS011;6425;50.316;8.114;2024-01-15T18:15:00;5.7;;;2.5;;
12721;SDS011;6425;50.316;8.114;2024-01-15T18:18:00;3.7;;;1.9;;
12721;SDS011;6425;50.316;8.114;2024-01-15T18:21:00;3.7;;;1.9;;
12721;SDS011;6425;50.316;8.114;2024-01-15T18:24:00;7.3;;;2.2;;
12721;SDS011;6425;50.316;8.114;2024-01-15T18:27:00;7.3;;;2.2;;
12721;SDS011;6425;50.316;8.114;2024-01-15T18:30:00;6.2;;;1.5;;
12721;SDS011;6425;50.316;8.114;2024-01-15T18:33:00;2.2;;;1;;
12721;SDS011;6425;50.316;8.114;2024-01-15T18:36:01;2.2;;;1;;
12721;SDS011;6425;50.316;8.114;2024-01-15T18:39:00;5.9;;;1.5;;